sensor_id;sensor_type;location;lat;lon;timestamp;P1;durP1;ratioP1;P2;durP2;ratioP2
7239;SDS011;3661;53.288;10.458;2023-04-03T00:00:36;540.47;;;454.77;;
7239;SDS011;3661;53.288;10.458;2023-04-03T00:03:08;538.22;;;461.20;;
7239;SDS011;3661;53.288;10.458;2023-04-03T00:05:41;538.28;;;444.00;;
7239;SDS011;3661;53.288;10.458;2023-04-03T00:08:13;538.00;;;452.20;;
7239;SDS011;3661;53.288;10.458;2023-04-03T00:10:46;537.92;;;450.25;;
7239;SDS011;3661;53.288;10.458;2023-04-03T00:13:18;537.75;;;450.92;;
7239;SDS011;3661;53.288;10.458;2023-04-03T00:15:52;536.50;;;451.30;;
7239;SDS011;3661;53.288;10.458;2023-04-03T00:18:24;535.75;;;451.88;;
7239;SDS011;3661;53.288;10.458;2023-04-03T00:20:56;534.83;;;445.30;;
7239;SDS011;3661;53.288;10.458;2023-04-03T00:23:29;535.15;;;449.25;;
7239;SDS011;3661;53.288;10.458;2023-04-03T00:26:01;532.45;;;451.33;;
7239;SDS011;3661;53.288;10.458;2023-04-03T00:28:34;535.22;;;448.85;;
7239;SDS011;3661;53.288;10.458;2023-04-03T00:31:07;532.03;;;437.70;;
7239;SDS011;3661;53.288;10.458;2023-04-03T00:33:46;532.00;;;436.67;;
7239;SDS011;3661;53.288;10.458;2023-04-03T00:36:18;534.58;;;435.60;;
7239;SDS011;3661;53.288;10.458;2023-04-03T00:38:50;532.95;;;446.65;;
7239;SDS011;3661;53.288;10.458;2023-04-03T00:41:23;530.30;;;435.33;;
7239;SDS011;3661;53.288;10.458;2023-04-03T00:43:56;530.20;;;433.42;;
7239;SDS011;3661;53.288;10.458;2023-04-03T00:46:30;528.42;;;425.67;;
7239;SDS011;3661;53.288;10.458;2023-04-03T00:49:02;526.77;;;425.50;;
7239;SDS011;3661;53.288;10.458;2023-04-03T00:51:36;524.13;;;429.00;;
7239;SDS011;3661;53.288;10.458;2023-04-03T00:54:08;528.15;;;427.27;;
7239;SDS011;3661;53.288;10.458;2023-04-03T00:56:44;526.15;;;437.33;;
7239;SDS011;3661;53.288;10.458;2023-04-03T00:59:17;523.88;;;423.52;;
7239;SDS011;3661;53.288;10.458;2023-04-03T01:01:57;524.70;;;428.90;;
7239;SDS011;3661;53.288;10.458;2023-04-03T01:04:32;524.83;;;422.05;;
7239;SDS011;3661;53.288;10.458;2023-04-03T01:07:07;522.38;;;422.08;;
7239;SDS011;3661;53.288;10.458;2023-04-03T01:09:42;522.95;;;420.95;;
7239;SDS011;3661;53.288;10.458;2023-04-03T01:12:16;519.22;;;428.02;;
7239;SDS011;3661;53.288;10.458;2023-04-03T01:14:51;519.77;;;427.47;;
7239;SDS011;3661;53.288;10.458;2023-04-03T01:17:31;521.43;;;418.33;;
7239;SDS011;3661;53.288;10.458;2023-04-03T01:20:18;520.70;;;413.88;;
7239;SDS011;3661;53.288;10.458;2023-04-03T01:23:25;520.17;;;419.73;;
7239;SDS011;3661;53.288;10.458;2023-04-03T01:26:11;519.42;;;407.70;;
7239;SDS011;3661;53.288;10.458;2023-04-03T01:28:43;516.70;;;412.05;;
7239;SDS011;3661;53.288;10.458;2023-04-03T01:31:18;519.35;;;406.98;;
7239;SDS011;3661;53.288;10.458;2023-04-03T01:33:56;517.95;;;411.58;;
7239;SDS011;3661;53.288;10.458;2023-04-03T01:36:30;515.25;;;406.58;;
7239;SDS011;3661;53.288;10.458;2023-04-03T01:39:03;515.35;;;408.88;;
7239;SDS011;3661;53.288;10.458;2023-04-03T01:41:35;520.40;;;395.77;;
7239;SDS011;3661;53.288;10.458;2023-04-03T01:44:07;516.75;;;399.50;;
7239;SDS011;3661;53.288;10.458;2023-04-03T01:46:39;516.33;;;392.30;;
7239;SDS011;3661;53.288;10.458;2023-04-03T01:49:13;513.67;;;397.60;;
7239;SDS011;3661;53.288;10.458;2023-04-03T01:51:45;514.08;;;391.67;;
7239;SDS011;3661;53.288;10.458;2023-04-03T01:54:17;516.72;;;385.42;;
7239;SDS011;3661;53.288;10.458;2023-04-03T01:56:50;514.85;;;385.20;;
7239;SDS011;3661;53.288;10.458;2023-04-03T01:59:22;515.90;;;386.35;;
7239;SDS011;3661;53.288;10.458;2023-04-03T02:01:54;510.40;;;381.40;;
7239;SDS011;3661;53.288;10.458;2023-04-03T02:04:30;512.42;;;381.63;;
7239;SDS011;3661;53.288;10.458;2023-04-03T02:07:02;512.55;;;386.55;;
7239;SDS011;3661;53.288;10.458;2023-04-03T02:09:34;513.70;;;389.90;;
7239;SDS011;3661;53.288;10.458;2023-04-03T02:12:06;510.67;;;385.40;;
7239;SDS011;3661;53.288;10.458;2023-04-03T02:14:39;510.63;;;380.63;;
7239;SDS011;3661;53.288;10.458;2023-04-03T02:17:11;510.75;;;386.23;;
7239;SDS011;3661;53.288;10.458;2023-04-03T02:19:44;508.30;;;378.58;;
7239;SDS011;3661;53.288;10.458;2023-04-03T02:22:16;509.25;;;369.90;;
7239;SDS011;3661;53.288;10.458;2023-04-03T02:24:49;510.83;;;378.77;;
7239;SDS011;3661;53.288;10.458;2023-04-03T02:27:23;505.50;;;374.48;;
7239;SDS011;3661;53.288;10.458;2023-04-03T02:29:55;501.98;;;365.85;;
7239;SDS011;3661;53.288;10.458;2023-04-03T02:32:28;500.73;;;374.57;;
7239;SDS011;3661;53.288;10.458;2023-04-03T02:35:03;506.20;;;377.35;;
7239;SDS011;3661;53.288;10.458;2023-04-03T02:37:36;500.90;;;379.23;;
7239;SDS011;3661;53.288;10.458;2023-04-03T02:40:10;501.17;;;378.73;;
7239;SDS011;3661;53.288;10.458;2023-04-03T02:42:42;498.40;;;372.20;;
7239;SDS011;3661;53.288;10.458;2023-04-03T02:45:15;499.55;;;375.23;;
7239;SDS011;3661;53.288;10.458;2023-04-03T02:47:47;495.25;;;377.73;;
7239;SDS011;3661;53.288;10.458;2023-04-03T02:50:21;497.90;;;381.17;;
7239;SDS011;3661;53.288;10.458;2023-04-03T02:52:53;493.50;;;373.52;;
7239;SDS011;3661;53.288;10.458;2023-04-03T02:55:25;497.63;;;375.98;;
7239;SDS011;3661;53.288;10.458;2023-04-03T02:57:58;491.52;;;363.80;;
7239;SDS011;3661;53.288;10.458;2023-04-03T03:00:30;494.65;;;375.08;;
7239;SDS011;3661;53.288;10.458;2023-04-03T03:03:02;490.17;;;355.35;;
7239;SDS011;3661;53.288;10.458;2023-04-03T03:05:36;490.50;;;362.50;;
7239;SDS011;3661;53.288;10.458;2023-04-03T03:08:09;491.52;;;367.27;;
7239;SDS011;3661;53.288;10.458;2023-04-03T03:10:44;492.95;;;365.80;;
7239;SDS011;3661;53.288;10.458;2023-04-03T03:13:16;487.85;;;369.75;;
7239;SDS011;3661;53.288;10.458;2023-04-03T03:15:49;489.73;;;368.05;;
7239;SDS011;3661;53.288;10.458;2023-04-03T03:18:22;488.98;;;358.98;;
7239;SDS011;3661;53.288;10.458;2023-04-03T03:20:56;492.10;;;375.65;;
7239;SDS011;3661;53.288;10.458;2023-04-03T03:23:30;485.53;;;357.23;;
7239;SDS011;3661;53.288;10.458;2023-04-03T03:26:07;486.42;;;361.30;;
7239;SDS011;3661;53.288;10.458;2023-04-03T03:28:40;486.27;;;360.52;;
7239;SDS011;3661;53.288;10.458;2023-04-03T03:31:13;487.85;;;359.55;;
7239;SDS011;3661;53.288;10.458;2023-04-03T03:33:47;483.58;;;358.35;;
7239;SDS011;3661;53.288;10.458;2023-04-03T03:36:22;484.55;;;362.42;;
7239;SDS011;3661;53.288;10.458;2023-04-03T03:38:55;479.15;;;359.50;;
7239;SDS011;3661;53.288;10.458;2023-04-03T03:41:27;480.27;;;363.80;;
7239;SDS011;3661;53.288;10.458;2023-04-03T03:43:59;478.40;;;348.20;;
7239;SDS011;3661;53.288;10.458;2023-04-03T03:46:32;476.38;;;346.25;;
7239;SDS011;3661;53.288;10.458;2023-04-03T03:49:05;479.90;;;355.23;;
7239;SDS011;3661;53.288;10.458;2023-04-03T03:51:38;478.92;;;354.00;;
7239;SDS011;3661;53.288;10.458;2023-04-03T03:54:11;479.02;;;353.40;;
7239;SDS011;3661;53.288;10.458;2023-04-03T03:56:45;478.65;;;354.83;;
7239;SDS011;3661;53.288;10.458;2023-04-03T03:59:17;479.02;;;359.33;;
7239;SDS011;3661;53.288;10.458;2023-04-03T04:01:50;477.80;;;357.13;;
7239;SDS011;3661;53.288;10.458;2023-04-03T04:04:22;477.33;;;345.63;;
7239;SDS011;3661;53.288;10.458;2023-04-03T04:06:56;478.50;;;354.23;;
7239;SDS011;3661;53.288;10.458;2023-04-03T04:09:30;477.83;;;352.25;;
7239;SDS011;3661;53.288;10.458;2023-04-03T04:12:02;478.00;;;345.60;;
7239;SDS011;3661;53.288;10.458;2023-04-03T04:14:35;479.00;;;350.23;;
7239;SDS011;3661;53.288;10.458;2023-04-03T04:17:08;479.63;;;347.85;;
7239;SDS011;3661;53.288;10.458;2023-04-03T04:19:40;482.25;;;351.15;;
7239;SDS011;3661;53.288;10.458;2023-04-03T04:22:17;484.47;;;357.70;;
7239;SDS011;3661;53.288;10.458;2023-04-03T04:24:49;478.58;;;355.90;;
7239;SDS011;3661;53.288;10.458;2023-04-03T04:27:21;480.58;;;346.10;;
7239;SDS011;3661;53.288;10.458;2023-04-03T04:29:56;479.15;;;350.23;;
7239;SDS011;3661;53.288;10.458;2023-04-03T04:32:28;480.40;;;339.00;;
7239;SDS011;3661;53.288;10.458;2023-04-03T04:35:00;480.75;;;352.50;;
7239;SDS011;3661;53.288;10.458;2023-04-03T04:37:35;482.38;;;347.48;;
7239;SDS011;3661;53.288;10.458;2023-04-03T04:40:07;487.02;;;366.10;;
7239;SDS011;3661;53.288;10.458;2023-04-03T04:42:40;484.95;;;354.73;;
7239;SDS011;3661;53.288;10.458;2023-04-03T04:45:12;481.55;;;350.85;;
7239;SDS011;3661;53.288;10.458;2023-04-03T04:47:46;482.17;;;356.65;;
7239;SDS011;3661;53.288;10.458;2023-04-03T04:50:21;485.23;;;345.75;;
7239;SDS011;3661;53.288;10.458;2023-04-03T04:52:55;490.33;;;361.20;;
7239;SDS011;3661;53.288;10.458;2023-04-03T04:55:27;489.83;;;353.40;;
7239;SDS011;3661;53.288;10.458;2023-04-03T04:57:59;487.50;;;357.23;;
7239;SDS011;3661;53.288;10.458;2023-04-03T05:00:31;492.05;;;370.23;;
7239;SDS011;3661;53.288;10.458;2023-04-03T05:03:04;493.20;;;370.10;;
7239;SDS011;3661;53.288;10.458;2023-04-03T05:05:37;489.97;;;352.47;;
7239;SDS011;3661;53.288;10.458;2023-04-03T05:08:10;491.52;;;367.50;;
7239;SDS011;3661;53.288;10.458;2023-04-03T05:10:44;493.48;;;365.02;;
7239;SDS011;3661;53.288;10.458;2023-04-03T05:13:17;491.90;;;357.33;;
7239;SDS011;3661;53.288;10.458;2023-04-03T05:15:49;489.63;;;367.17;;
7239;SDS011;3661;53.288;10.458;2023-04-03T05:18:21;489.63;;;365.80;;
7239;SDS011;3661;53.288;10.458;2023-04-03T05:20:55;490.83;;;369.80;;
7239;SDS011;3661;53.288;10.458;2023-04-03T05:23:29;494.67;;;365.57;;
7239;SDS011;3661;53.288;10.458;2023-04-03T05:26:02;490.00;;;364.98;;
7239;SDS011;3661;53.288;10.458;2023-04-03T05:28:35;494.70;;;363.42;;
7239;SDS011;3661;53.288;10.458;2023-04-03T05:31:07;473.58;;;350.92;;
7239;SDS011;3661;53.288;10.458;2023-04-03T05:33:39;478.13;;;359.88;;
7239;SDS011;3661;53.288;10.458;2023-04-03T05:36:11;481.15;;;372.10;;
7239;SDS011;3661;53.288;10.458;2023-04-03T05:38:45;484.65;;;363.30;;
7239;SDS011;3661;53.288;10.458;2023-04-03T05:41:19;481.83;;;365.92;;
7239;SDS011;3661;53.288;10.458;2023-04-03T05:43:51;488.70;;;378.23;;
7239;SDS011;3661;53.288;10.458;2023-04-03T05:46:24;485.20;;;370.10;;
7239;SDS011;3661;53.288;10.458;2023-04-03T05:48:57;495.73;;;379.90;;
7239;SDS011;3661;53.288;10.458;2023-04-03T05:51:30;490.83;;;375.53;;
7239;SDS011;3661;53.288;10.458;2023-04-03T05:54:09;488.67;;;371.40;;
7239;SDS011;3661;53.288;10.458;2023-04-03T05:56:44;496.98;;;387.05;;
7239;SDS011;3661;53.288;10.458;2023-04-03T05:59:16;495.27;;;376.42;;
7239;SDS011;3661;53.288;10.458;2023-04-03T06:01:49;494.75;;;386.90;;
7239;SDS011;3661;53.288;10.458;2023-04-03T06:04:21;497.60;;;382.67;;
7239;SDS011;3661;53.288;10.458;2023-04-03T06:06:53;497.77;;;393.38;;
7239;SDS011;3661;53.288;10.458;2023-04-03T06:09:28;498.92;;;395.73;;
7239;SDS011;3661;53.288;10.458;2023-04-03T06:12:01;499.83;;;395.80;;
7239;SDS011;3661;53.288;10.458;2023-04-03T06:14:34;502.55;;;393.98;;
7239;SDS011;3661;53.288;10.458;2023-04-03T06:17:09;514.42;;;417.15;;
7239;SDS011;3661;53.288;10.458;2023-04-03T06:19:50;508.80;;;414.55;;
7239;SDS011;3661;53.288;10.458;2023-04-03T06:22:25;508.75;;;401.75;;
7239;SDS011;3661;53.288;10.458;2023-04-03T06:27:48;516.80;;;417.10;;
7239;SDS011;3661;53.288;10.458;2023-04-03T06:30:37;513.95;;;423.40;;
7239;SDS011;3661;53.288;10.458;2023-04-03T06:33:09;520.00;;;432.30;;
7239;SDS011;3661;53.288;10.458;2023-04-03T06:35:42;512.90;;;428.88;;
7239;SDS011;3661;53.288;10.458;2023-04-03T06:38:17;515.63;;;433.10;;
7239;SDS011;3661;53.288;10.458;2023-04-03T06:40:54;520.20;;;433.77;;
7239;SDS011;3661;53.288;10.458;2023-04-03T06:43:27;526.58;;;444.08;;
7239;SDS011;3661;53.288;10.458;2023-04-03T06:45:59;522.80;;;448.63;;
7239;SDS011;3661;53.288;10.458;2023-04-03T06:48:37;523.95;;;449.92;;
7239;SDS011;3661;53.288;10.458;2023-04-03T06:51:14;526.05;;;457.10;;
7239;SDS011;3661;53.288;10.458;2023-04-03T06:53:50;524.30;;;436.17;;
7239;SDS011;3661;53.288;10.458;2023-04-03T06:56:29;529.63;;;457.60;;
7239;SDS011;3661;53.288;10.458;2023-04-03T06:59:05;531.85;;;457.98;;
7239;SDS011;3661;53.288;10.458;2023-04-03T07:01:37;532.47;;;464.48;;
7239;SDS011;3661;53.288;10.458;2023-04-03T07:04:11;534.83;;;462.15;;
7239;SDS011;3661;53.288;10.458;2023-04-03T07:06:49;533.78;;;466.48;;
7239;SDS011;3661;53.288;10.458;2023-04-03T07:09:22;536.50;;;465.03;;
7239;SDS011;3661;53.288;10.458;2023-04-03T07:11:56;537.58;;;477.58;;
7239;SDS011;3661;53.288;10.458;2023-04-03T07:14:30;545.90;;;485.85;;
7239;SDS011;3661;53.288;10.458;2023-04-03T07:17:02;551.13;;;490.70;;
7239;SDS011;3661;53.288;10.458;2023-04-03T07:19:34;549.83;;;489.52;;
7239;SDS011;3661;53.288;10.458;2023-04-03T07:22:10;543.13;;;482.90;;
7239;SDS011;3661;53.288;10.458;2023-04-03T07:24:43;548.58;;;486.10;;
7239;SDS011;3661;53.288;10.458;2023-04-03T07:27:16;551.35;;;490.45;;
7239;SDS011;3661;53.288;10.458;2023-04-03T07:29:48;561.53;;;500.05;;
7239;SDS011;3661;53.288;10.458;2023-04-03T07:32:20;564.22;;;502.52;;
7239;SDS011;3661;53.288;10.458;2023-04-03T07:34:52;573.85;;;512.13;;
7239;SDS011;3661;53.288;10.458;2023-04-03T07:37:25;566.47;;;504.58;;
7239;SDS011;3661;53.288;10.458;2023-04-03T07:39:57;565.53;;;503.88;;
7239;SDS011;3661;53.288;10.458;2023-04-03T07:42:34;570.47;;;508.05;;
7239;SDS011;3661;53.288;10.458;2023-04-03T07:45:06;589.80;;;527.08;;
7239;SDS011;3661;53.288;10.458;2023-04-03T07:47:39;583.05;;;520.33;;
7239;SDS011;3661;53.288;10.458;2023-04-03T07:50:11;592.20;;;528.90;;
7239;SDS011;3661;53.288;10.458;2023-04-03T07:52:43;604.78;;;541.25;;
7239;SDS011;3661;53.288;10.458;2023-04-03T07:55:16;611.00;;;547.42;;
7239;SDS011;3661;53.288;10.458;2023-04-03T07:57:50;607.92;;;543.67;;
7239;SDS011;3661;53.288;10.458;2023-04-03T08:00:22;628.33;;;564.03;;
7239;SDS011;3661;53.288;10.458;2023-04-03T08:02:54;617.47;;;553.35;;
7239;SDS011;3661;53.288;10.458;2023-04-03T08:05:29;646.47;;;581.80;;
7239;SDS011;3661;53.288;10.458;2023-04-03T08:08:01;640.47;;;575.88;;
7239;SDS011;3661;53.288;10.458;2023-04-03T08:10:33;642.13;;;576.70;;
7239;SDS011;3661;53.288;10.458;2023-04-03T08:13:07;653.95;;;588.45;;
7239;SDS011;3661;53.288;10.458;2023-04-03T08:15:39;666.95;;;601.45;;
7239;SDS011;3661;53.288;10.458;2023-04-03T08:18:12;660.35;;;593.78;;
7239;SDS011;3661;53.288;10.458;2023-04-03T08:20:53;674.42;;;607.03;;
7239;SDS011;3661;53.288;10.458;2023-04-03T08:23:25;691.40;;;623.70;;
7239;SDS011;3661;53.288;10.458;2023-04-03T08:25:57;690.83;;;623.35;;
7239;SDS011;3661;53.288;10.458;2023-04-03T08:28:31;694.42;;;627.33;;
7239;SDS011;3661;53.288;10.458;2023-04-03T08:31:04;693.40;;;625.70;;
7239;SDS011;3661;53.288;10.458;2023-04-03T08:33:37;698.20;;;629.72;;
7239;SDS011;3661;53.288;10.458;2023-04-03T08:36:15;717.42;;;649.42;;
7239;SDS011;3661;53.288;10.458;2023-04-03T08:38:50;723.00;;;654.13;;
7239;SDS011;3661;53.288;10.458;2023-04-03T08:41:25;736.25;;;667.75;;
7239;SDS011;3661;53.288;10.458;2023-04-03T08:44:07;746.15;;;677.13;;
7239;SDS011;3661;53.288;10.458;2023-04-03T08:46:54;754.20;;;684.85;;
7239;SDS011;3661;53.288;10.458;2023-04-03T08:49:43;754.08;;;684.08;;
7239;SDS011;3661;53.288;10.458;2023-04-03T08:52:22;789.35;;;719.47;;
7239;SDS011;3661;53.288;10.458;2023-04-03T08:55:03;763.92;;;694.35;;
7239;SDS011;3661;53.288;10.458;2023-04-03T08:57:38;801.70;;;731.15;;
7239;SDS011;3661;53.288;10.458;2023-04-03T09:00:17;805.45;;;734.88;;
7239;SDS011;3661;53.288;10.458;2023-04-03T09:02:51;817.67;;;746.78;;
7239;SDS011;3661;53.288;10.458;2023-04-03T09:05:29;808.05;;;736.85;;
7239;SDS011;3661;53.288;10.458;2023-04-03T09:08:14;837.00;;;765.53;;
7239;SDS011;3661;53.288;10.458;2023-04-03T09:10:58;835.92;;;764.33;;
7239;SDS011;3661;53.288;10.458;2023-04-03T09:13:40;851.95;;;779.65;;
7239;SDS011;3661;53.288;10.458;2023-04-03T09:16:21;858.17;;;786.05;;
7239;SDS011;3661;53.288;10.458;2023-04-03T09:19:06;882.40;;;810.25;;
7239;SDS011;3661;53.288;10.458;2023-04-03T09:21:47;855.17;;;782.38;;
7239;SDS011;3661;53.288;10.458;2023-04-03T09:24:19;884.47;;;812.22;;
7239;SDS011;3661;53.288;10.458;2023-04-03T09:26:55;894.90;;;822.17;;
7239;SDS011;3661;53.288;10.458;2023-04-03T09:29:30;896.42;;;823.55;;
7239;SDS011;3661;53.288;10.458;2023-04-03T09:32:18;918.83;;;845.35;;
7239;SDS011;3661;53.288;10.458;2023-04-03T09:34:57;926.87;;;853.30;;
7239;SDS011;3661;53.288;10.458;2023-04-03T09:48:56;961.95;;;886.95;;
7239;SDS011;3661;53.288;10.458;2023-04-03T09:51:30;973.30;;;898.00;;
7239;SDS011;3661;53.288;10.458;2023-04-03T09:54:05;968.30;;;893.23;;
7239;SDS011;3661;53.288;10.458;2023-04-03T09:56:57;992.27;;;917.00;;
7239;SDS011;3661;53.288;10.458;2023-04-03T09:59:35;986.03;;;910.88;;
7239;SDS011;3661;53.288;10.458;2023-04-03T10:02:22;999.88;;;923.97;;
7239;SDS011;3661;53.288;10.458;2023-04-03T10:05:05;1017.67;;;941.40;;
7239;SDS011;3661;53.288;10.458;2023-04-03T10:08:15;1000.35;;;925.15;;
7239;SDS011;3661;53.288;10.458;2023-04-03T10:11:09;1042.95;;;967.75;;
7239;SDS011;3661;53.288;10.458;2023-04-03T10:13:50;1163.90;;;999.90;;
7239;SDS011;3661;53.288;10.458;2023-04-03T10:16:25;1125.45;;;999.90;;
7239;SDS011;3661;53.288;10.458;2023-04-03T10:19:06;1210.40;;;999.90;;
7239;SDS011;3661;53.288;10.458;2023-04-03T10:22:02;1196.95;;;999.90;;
7239;SDS011;3661;53.288;10.458;2023-04-03T10:24:43;1235.00;;;999.90;;
7239;SDS011;3661;53.288;10.458;2023-04-03T10:27:24;1185.88;;;999.90;;
7239;SDS011;3661;53.288;10.458;2023-04-03T10:30:03;1163.13;;;999.90;;
7239;SDS011;3661;53.288;10.458;2023-04-03T10:32:52;1259.50;;;999.90;;
7239;SDS011;3661;53.288;10.458;2023-04-03T10:35:35;1226.32;;;999.90;;
7239;SDS011;3661;53.288;10.458;2023-04-03T10:38:17;1204.63;;;999.90;;
7239;SDS011;3661;53.288;10.458;2023-04-03T10:40:57;1221.40;;;999.90;;
7239;SDS011;3661;53.288;10.458;2023-04-03T10:43:35;1228.03;;;999.90;;
7239;SDS011;3661;53.288;10.458;2023-04-03T10:46:15;1225.03;;;999.90;;
7239;SDS011;3661;53.288;10.458;2023-04-03T10:48:59;1252.80;;;999.90;;
7239;SDS011;3661;53.288;10.458;2023-04-03T10:51:41;1215.18;;;999.90;;
7239;SDS011;3661;53.288;10.458;2023-04-03T10:54:18;1231.65;;;999.90;;
7239;SDS011;3661;53.288;10.458;2023-04-03T10:56:54;1206.53;;;999.90;;
7239;SDS011;3661;53.288;10.458;2023-04-03T10:59:32;1228.57;;;999.90;;
7239;SDS011;3661;53.288;10.458;2023-04-03T11:02:07;1270.28;;;999.90;;
7239;SDS011;3661;53.288;10.458;2023-04-03T11:04:50;1290.80;;;999.90;;
7239;SDS011;3661;53.288;10.458;2023-04-03T11:07:32;1302.33;;;999.90;;
7239;SDS011;3661;53.288;10.458;2023-04-03T11:10:20;1311.10;;;999.90;;
7239;SDS011;3661;53.288;10.458;2023-04-03T11:12:56;1320.55;;;999.90;;
7239;SDS011;3661;53.288;10.458;2023-04-03T11:15:33;1298.78;;;999.90;;
7239;SDS011;3661;53.288;10.458;2023-04-03T11:18:06;1328.03;;;999.90;;
7239;SDS011;3661;53.288;10.458;2023-04-03T11:20:42;1332.65;;;999.90;;
7239;SDS011;3661;53.288;10.458;2023-04-03T11:23:21;1316.70;;;999.90;;
7239;SDS011;3661;53.288;10.458;2023-04-03T11:26:01;1348.22;;;999.90;;
7239;SDS011;3661;53.288;10.458;2023-04-03T11:28:39;1314.55;;;999.90;;
7239;SDS011;3661;53.288;10.458;2023-04-03T11:31:15;1268.60;;;999.90;;
7239;SDS011;3661;53.288;10.458;2023-04-03T11:33:59;1284.47;;;999.90;;
7239;SDS011;3661;53.288;10.458;2023-04-03T11:36:41;1230.80;;;999.90;;
7239;SDS011;3661;53.288;10.458;2023-04-03T11:39:21;1265.90;;;999.90;;
7239;SDS011;3661;53.288;10.458;2023-04-03T11:44:48;1262.07;;;999.90;;
7239;SDS011;3661;53.288;10.458;2023-04-03T11:56:27;1187.95;;;999.90;;
7239;SDS011;3661;53.288;10.458;2023-04-03T12:01:55;1210.50;;;999.90;;
7239;SDS011;3661;53.288;10.458;2023-04-03T12:04:29;1212.93;;;999.90;;
7239;SDS011;3661;53.288;10.458;2023-04-03T12:09:58;1245.60;;;999.90;;
7239;SDS011;3661;53.288;10.458;2023-04-03T12:12:35;1233.13;;;999.90;;
7239;SDS011;3661;53.288;10.458;2023-04-03T12:24:37;1250.15;;;999.90;;
7239;SDS011;3661;53.288;10.458;2023-04-03T12:27:15;1257.00;;;999.90;;
7239;SDS011;3661;53.288;10.458;2023-04-03T12:30:12;1274.80;;;999.90;;
7239;SDS011;3661;53.288;10.458;2023-04-03T12:32:50;1223.10;;;999.90;;
7239;SDS011;3661;53.288;10.458;2023-04-03T12:35:36;1242.35;;;999.90;;
7239;SDS011;3661;53.288;10.458;2023-04-03T12:38:14;1231.47;;;999.90;;
7239;SDS011;3661;53.288;10.458;2023-04-03T12:44:12;1205.20;;;999.90;;
7239;SDS011;3661;53.288;10.458;2023-04-03T12:47:00;1206.40;;;999.90;;
7239;SDS011;3661;53.288;10.458;2023-04-03T12:49:39;1237.82;;;999.90;;
7239;SDS011;3661;53.288;10.458;2023-04-03T12:52:29;1237.85;;;999.90;;
7239;SDS011;3661;53.288;10.458;2023-04-03T12:55:08;1242.53;;;999.90;;
7239;SDS011;3661;53.288;10.458;2023-04-03T12:57:46;1214.15;;;999.90;;
7239;SDS011;3661;53.288;10.458;2023-04-03T13:00:25;1182.55;;;999.90;;
7239;SDS011;3661;53.288;10.458;2023-04-03T13:03:04;1158.18;;;999.90;;
7239;SDS011;3661;53.288;10.458;2023-04-03T13:05:38;1197.68;;;999.90;;
7239;SDS011;3661;53.288;10.458;2023-04-03T13:08:12;1235.73;;;999.90;;
7239;SDS011;3661;53.288;10.458;2023-04-03T13:10:48;1217.32;;;999.90;;
7239;SDS011;3661;53.288;10.458;2023-04-03T13:13:26;1255.50;;;999.90;;
7239;SDS011;3661;53.288;10.458;2023-04-03T13:15:59;1264.47;;;999.90;;
7239;SDS011;3661;53.288;10.458;2023-04-03T13:18:44;1230.25;;;999.90;;
7239;SDS011;3661;53.288;10.458;2023-04-03T13:21:22;1266.20;;;999.90;;
7239;SDS011;3661;53.288;10.458;2023-04-03T13:24:00;1256.50;;;999.90;;
7239;SDS011;3661;53.288;10.458;2023-04-03T13:26:34;1248.72;;;999.90;;
7239;SDS011;3661;53.288;10.458;2023-04-03T13:29:07;1260.68;;;999.90;;
7239;SDS011;3661;53.288;10.458;2023-04-03T13:31:53;1297.05;;;999.90;;
7239;SDS011;3661;53.288;10.458;2023-04-03T13:34:28;1319.33;;;999.90;;
7239;SDS011;3661;53.288;10.458;2023-04-03T13:37:06;1340.07;;;999.90;;
7239;SDS011;3661;53.288;10.458;2023-04-03T13:39:58;1362.78;;;999.90;;
7239;SDS011;3661;53.288;10.458;2023-04-03T13:42:35;1372.10;;;999.90;;
7239;SDS011;3661;53.288;10.458;2023-04-03T13:45:20;1370.20;;;999.90;;
7239;SDS011;3661;53.288;10.458;2023-04-03T13:48:07;1370.25;;;999.90;;
7239;SDS011;3661;53.288;10.458;2023-04-03T13:50:51;1394.25;;;999.90;;
7239;SDS011;3661;53.288;10.458;2023-04-03T13:53:26;1349.13;;;999.90;;
7239;SDS011;3661;53.288;10.458;2023-04-03T13:56:06;1367.45;;;999.90;;
7239;SDS011;3661;53.288;10.458;2023-04-03T13:58:51;1395.30;;;999.90;;
7239;SDS011;3661;53.288;10.458;2023-04-03T14:01:32;1402.90;;;999.90;;
7239;SDS011;3661;53.288;10.458;2023-04-03T14:04:16;1388.75;;;999.90;;
7239;SDS011;3661;53.288;10.458;2023-04-03T14:06:49;1372.03;;;999.90;;
7239;SDS011;3661;53.288;10.458;2023-04-03T14:09:24;1390.47;;;999.90;;
7239;SDS011;3661;53.288;10.458;2023-04-03T14:12:00;1368.30;;;999.90;;
7239;SDS011;3661;53.288;10.458;2023-04-03T14:14:37;1383.97;;;999.90;;
7239;SDS011;3661;53.288;10.458;2023-04-03T14:17:12;1361.70;;;999.90;;
7239;SDS011;3661;53.288;10.458;2023-04-03T14:19:48;1367.20;;;999.90;;
7239;SDS011;3661;53.288;10.458;2023-04-03T14:22:23;1368.07;;;999.90;;
7239;SDS011;3661;53.288;10.458;2023-04-03T14:24:58;1366.72;;;999.90;;
7239;SDS011;3661;53.288;10.458;2023-04-03T14:27:36;1375.93;;;999.90;;
7239;SDS011;3661;53.288;10.458;2023-04-03T14:30:12;1370.50;;;999.90;;
7239;SDS011;3661;53.288;10.458;2023-04-03T14:32:47;1370.65;;;999.90;;
7239;SDS011;3661;53.288;10.458;2023-04-03T14:35:20;1362.78;;;999.90;;
7239;SDS011;3661;53.288;10.458;2023-04-03T14:37:53;1391.95;;;999.90;;
7239;SDS011;3661;53.288;10.458;2023-04-03T14:40:27;1372.72;;;999.90;;
7239;SDS011;3661;53.288;10.458;2023-04-03T14:43:00;1373.38;;;999.90;;
7239;SDS011;3661;53.288;10.458;2023-04-03T14:45:32;1382.65;;;999.90;;
7239;SDS011;3661;53.288;10.458;2023-04-03T14:48:06;1377.72;;;999.90;;
7239;SDS011;3661;53.288;10.458;2023-04-03T14:50:44;1383.63;;;999.90;;
7239;SDS011;3661;53.288;10.458;2023-04-03T14:53:17;1380.63;;;999.90;;
7239;SDS011;3661;53.288;10.458;2023-04-03T14:55:52;1382.32;;;999.90;;
7239;SDS011;3661;53.288;10.458;2023-04-03T14:58:26;1384.78;;;999.90;;
7239;SDS011;3661;53.288;10.458;2023-04-03T15:00:59;1372.03;;;999.90;;
7239;SDS011;3661;53.288;10.458;2023-04-03T15:03:31;1400.50;;;999.90;;
7239;SDS011;3661;53.288;10.458;2023-04-03T15:06:03;1392.97;;;999.90;;
7239;SDS011;3661;53.288;10.458;2023-04-03T15:08:35;1377.88;;;999.90;;
7239;SDS011;3661;53.288;10.458;2023-04-03T15:11:07;1386.50;;;999.90;;
7239;SDS011;3661;53.288;10.458;2023-04-03T15:13:41;1367.15;;;999.90;;
7239;SDS011;3661;53.288;10.458;2023-04-03T15:16:15;1359.15;;;999.90;;
7239;SDS011;3661;53.288;10.458;2023-04-03T15:18:49;1370.47;;;999.90;;
7239;SDS011;3661;53.288;10.458;2023-04-03T15:21:22;1368.20;;;999.90;;
7239;SDS011;3661;53.288;10.458;2023-04-03T15:23:54;1378.78;;;999.90;;
7239;SDS011;3661;53.288;10.458;2023-04-03T15:26:26;1377.93;;;999.90;;
7239;SDS011;3661;53.288;10.458;2023-04-03T15:29:02;1383.30;;;999.90;;
7239;SDS011;3661;53.288;10.458;2023-04-03T15:31:35;1380.22;;;999.90;;
7239;SDS011;3661;53.288;10.458;2023-04-03T15:34:07;1381.28;;;999.90;;
7239;SDS011;3661;53.288;10.458;2023-04-03T15:36:39;1397.90;;;999.90;;